sensor_id;sensor_type;location;lat;lon;timestamp;temperature;humidity
19025;DHT22;9645;51.448;6.260;2022-07-15T00:01:04;14.30;99.90
19025;DHT22;9645;51.448;6.260;2022-07-15T00:03:31;14.20;99.90
19025;DHT22;9645;51.448;6.260;2022-07-15T00:05:59;14.30;99.90
19025;DHT22;9645;51.448;6.260;2022-07-15T00:08:26;14.20;99.90
19025;DHT22;9645;51.448;6.260;2022-07-15T00:10:54;14.30;99.90
19025;DHT22;9645;51.448;6.260;2022-07-15T00:13:22;14.30;99.90
19025;DHT22;9645;51.448;6.260;2022-07-15T00:15:50;14.30;99.90
19025;DHT22;9645;51.448;6.260;2022-07-15T00:18:17;14.30;99.90
19025;DHT22;9645;51.448;6.260;2022-07-15T00:20:44;14.40;99.90
19025;DHT22;9645;51.448;6.260;2022-07-15T00:23:13;14.40;99.90
19025;DHT22;9645;51.448;6.260;2022-07-15T00:25:40;14.30;99.90
19025;DHT22;9645;51.448;6.260;2022-07-15T00:28:07;14.30;99.90
19025;DHT22;9645;51.448;6.260;2022-07-15T00:30:36;14.20;99.90
19025;DHT22;9645;51.448;6.260;2022-07-15T00:33:04;14.20;99.90
19025;DHT22;9645;51.448;6.260;2022-07-15T00:35:32;14.10;99.90
19025;DHT22;9645;51.448;6.260;2022-07-15T00:38:01;14.10;99.90
19025;DHT22;9645;51.448;6.260;2022-07-15T00:40:30;14.00;99.90
19025;DHT22;9645;51.448;6.260;2022-07-15T00:42:57;14.00;99.90
19025;DHT22;9645;51.448;6.260;2022-07-15T00:45:24;14.00;99.90
19025;DHT22;9645;51.448;6.260;2022-07-15T00:47:53;14.00;99.90
19025;DHT22;9645;51.448;6.260;2022-07-15T00:50:22;14.00;99.90
19025;DHT22;9645;51.448;6.260;2022-07-15T00:52:54;14.00;99.90
19025;DHT22;9645;51.448;6.260;2022-07-15T00:55:22;14.10;99.90
19025;DHT22;9645;51.448;6.260;2022-07-15T00:57:54;14.10;99.90
19025;DHT22;9645;51.448;6.260;2022-07-15T01:00:24;14.20;99.90
19025;DHT22;9645;51.448;6.260;2022-07-15T01:02:52;14.20;99.90
19025;DHT22;9645;51.448;6.260;2022-07-15T01:05:21;14.20;99.90
19025;DHT22;9645;51.448;6.260;2022-07-15T01:07:49;14.10;99.90
19025;DHT22;9645;51.448;6.260;2022-07-15T01:10:17;14.00;99.90
19025;DHT22;9645;51.448;6.260;2022-07-15T01:12:45;14.00;99.90
19025;DHT22;9645;51.448;6.260;2022-07-15T01:15:15;13.90;99.90
19025;DHT22;9645;51.448;6.260;2022-07-15T01:17:43;13.80;99.90
19025;DHT22;9645;51.448;6.260;2022-07-15T01:20:11;13.70;99.90
19025;DHT22;9645;51.448;6.260;2022-07-15T01:22:41;13.70;99.90
19025;DHT22;9645;51.448;6.260;2022-07-15T01:25:08;13.60;99.90
19025;DHT22;9645;51.448;6.260;2022-07-15T01:27:35;13.50;99.90
19025;DHT22;9645;51.448;6.260;2022-07-15T01:30:04;13.50;99.90
19025;DHT22;9645;51.448;6.260;2022-07-15T01:32:31;13.40;99.90
19025;DHT22;9645;51.448;6.260;2022-07-15T01:34:58;13.30;99.90
19025;DHT22;9645;51.448;6.260;2022-07-15T01:37:25;13.30;99.90
19025;DHT22;9645;51.448;6.260;2022-07-15T01:39:53;13.30;99.90
19025;DHT22;9645;51.448;6.260;2022-07-15T01:42:21;13.20;99.90
19025;DHT22;9645;51.448;6.260;2022-07-15T01:44:48;13.10;99.90
19025;DHT22;9645;51.448;6.260;2022-07-15T01:47:15;13.00;99.90
19025;DHT22;9645;51.448;6.260;2022-07-15T01:49:42;13.10;99.90
19025;DHT22;9645;51.448;6.260;2022-07-15T01:52:09;13.00;99.90
19025;DHT22;9645;51.448;6.260;2022-07-15T01:54:36;12.90;99.90
19025;DHT22;9645;51.448;6.260;2022-07-15T01:57:05;12.90;99.90
19025;DHT22;9645;51.448;6.260;2022-07-15T01:59:32;12.90;99.90
19025;DHT22;9645;51.448;6.260;2022-07-15T02:01:59;12.80;99.90
19025;DHT22;9645;51.448;6.260;2022-07-15T02:04:26;12.80;99.90
19025;DHT22;9645;51.448;6.260;2022-07-15T02:06:53;12.70;99.90
19025;DHT22;9645;51.448;6.260;2022-07-15T02:09:20;12.70;99.90
19025;DHT22;9645;51.448;6.260;2022-07-15T02:11:47;12.70;99.90
19025;DHT22;9645;51.448;6.260;2022-07-15T02:14:15;12.70;99.90
19025;DHT22;9645;51.448;6.260;2022-07-15T02:16:43;12.60;99.90
19025;DHT22;9645;51.448;6.260;2022-07-15T02:19:09;12.60;99.90
19025;DHT22;9645;51.448;6.260;2022-07-15T02:21:37;12.60;99.90
19025;DHT22;9645;51.448;6.260;2022-07-15T02:24:07;12.60;99.90
19025;DHT22;9645;51.448;6.260;2022-07-15T02:26:34;12.50;99.90
19025;DHT22;9645;51.448;6.260;2022-07-15T02:29:01;12.50;99.90
19025;DHT22;9645;51.448;6.260;2022-07-15T02:31:30;12.40;99.90
19025;DHT22;9645;51.448;6.260;2022-07-15T02:33:57;12.50;99.90
19025;DHT22;9645;51.448;6.260;2022-07-15T02:36:24;12.40;99.90
19025;DHT22;9645;51.448;6.260;2022-07-15T02:38:51;12.40;99.90
19025;DHT22;9645;51.448;6.260;2022-07-15T02:41:17;12.40;99.90
19025;DHT22;9645;51.448;6.260;2022-07-15T02:43:44;12.30;99.90
19025;DHT22;9645;51.448;6.260;2022-07-15T02:46:12;12.30;99.90
19025;DHT22;9645;51.448;6.260;2022-07-15T02:48:40;12.30;99.90
19025;DHT22;9645;51.448;6.260;2022-07-15T02:51:08;12.30;99.90
19025;DHT22;9645;51.448;6.260;2022-07-15T02:53:35;12.20;99.90
19025;DHT22;9645;51.448;6.260;2022-07-15T02:56:03;12.10;99.90
19025;DHT22;9645;51.448;6.260;2022-07-15T02:58:30;12.10;99.90
19025;DHT22;9645;51.448;6.260;2022-07-15T03:00:57;12.10;99.90
19025;DHT22;9645;51.448;6.260;2022-07-15T03:03:25;12.10;99.90
19025;DHT22;9645;51.448;6.260;2022-07-15T03:05:55;12.10;99.90
19025;DHT22;9645;51.448;6.260;2022-07-15T03:08:22;12.00;99.90
19025;DHT22;9645;51.448;6.260;2022-07-15T03:10:50;12.00;99.90
19025;DHT22;9645;51.448;6.260;2022-07-15T03:13:17;12.00;99.90
19025;DHT22;9645;51.448;6.260;2022-07-15T03:15:44;12.00;99.90
19025;DHT22;9645;51.448;6.260;2022-07-15T03:18:11;12.00;99.90
19025;DHT22;9645;51.448;6.260;2022-07-15T03:20:38;11.90;99.90
19025;DHT22;9645;51.448;6.260;2022-07-15T03:23:06;11.90;99.90
19025;DHT22;9645;51.448;6.260;2022-07-15T03:25:33;13.50;99.90
19025;DHT22;9645;51.448;6.260;2022-07-15T03:28:00;11.80;99.90
19025;DHT22;9645;51.448;6.260;2022-07-15T03:30:27;11.80;99.90
19025;DHT22;9645;51.448;6.260;2022-07-15T03:32:54;11.80;99.90
19025;DHT22;9645;51.448;6.260;2022-07-15T03:35:22;11.80;99.90
19025;DHT22;9645;51.448;6.260;2022-07-15T03:37:49;11.70;99.90
19025;DHT22;9645;51.448;6.260;2022-07-15T03:40:17;11.80;99.90
19025;DHT22;9645;51.448;6.260;2022-07-15T03:42:44;11.80;99.90
19025;DHT22;9645;51.448;6.260;2022-07-15T03:45:11;11.70;99.90
19025;DHT22;9645;51.448;6.260;2022-07-15T03:47:39;11.70;99.90
19025;DHT22;9645;51.448;6.260;2022-07-15T03:50:06;11.70;99.90
19025;DHT22;9645;51.448;6.260;2022-07-15T03:52:34;11.70;99.90
19025;DHT22;9645;51.448;6.260;2022-07-15T03:55:01;11.70;99.90
19025;DHT22;9645;51.448;6.260;2022-07-15T03:57:29;11.80;99.90
19025;DHT22;9645;51.448;6.260;2022-07-15T03:59:56;11.70;99.90
19025;DHT22;9645;51.448;6.260;2022-07-15T04:02:23;11.80;99.90
19025;DHT22;9645;51.448;6.260;2022-07-15T04:04:50;11.80;99.90
19025;DHT22;9645;51.448;6.260;2022-07-15T04:07:18;11.80;99.90
19025;DHT22;9645;51.448;6.260;2022-07-15T04:09:45;11.90;99.90
19025;DHT22;9645;51.448;6.260;2022-07-15T04:12:12;11.90;99.90
19025;DHT22;9645;51.448;6.260;2022-07-15T04:14:40;12.00;99.90
19025;DHT22;9645;51.448;6.260;2022-07-15T04:17:07;12.00;99.90
19025;DHT22;9645;51.448;6.260;2022-07-15T04:19:34;12.10;99.90
19025;DHT22;9645;51.448;6.260;2022-07-15T04:22:01;12.20;99.90
19025;DHT22;9645;51.448;6.260;2022-07-15T04:24:28;12.20;99.90
19025;DHT22;9645;51.448;6.260;2022-07-15T04:26:55;12.30;99.90
19025;DHT22;9645;51.448;6.260;2022-07-15T04:29:22;12.30;99.90
19025;DHT22;9645;51.448;6.260;2022-07-15T04:31:50;12.40;99.90
19025;DHT22;9645;51.448;6.260;2022-07-15T04:34:17;12.50;99.90
19025;DHT22;9645;51.448;6.260;2022-07-15T04:36:44;12.50;99.90
19025;DHT22;9645;51.448;6.260;2022-07-15T04:39:11;12.60;99.90
19025;DHT22;9645;51.448;6.260;2022-07-15T04:41:39;12.70;99.90
19025;DHT22;9645;51.448;6.260;2022-07-15T04:44:06;12.80;99.90
19025;DHT22;9645;51.448;6.260;2022-07-15T04:46:33;13.00;99.90
19025;DHT22;9645;51.448;6.260;2022-07-15T04:49:03;13.10;99.90
19025;DHT22;9645;51.448;6.260;2022-07-15T04:51:48;13.20;99.90
19025;DHT22;9645;51.448;6.260;2022-07-15T04:54:15;13.30;99.90
19025;DHT22;9645;51.448;6.260;2022-07-15T04:56:41;13.40;99.90
19025;DHT22;9645;51.448;6.260;2022-07-15T04:59:08;13.40;99.90
19025;DHT22;9645;51.448;6.260;2022-07-15T05:01:36;13.50;99.90
19025;DHT22;9645;51.448;6.260;2022-07-15T05:04:05;13.50;99.90
19025;DHT22;9645;51.448;6.260;2022-07-15T05:06:32;13.60;99.90
19025;DHT22;9645;51.448;6.260;2022-07-15T05:08:59;13.60;99.90
19025;DHT22;9645;51.448;6.260;2022-07-15T05:11:26;13.60;99.90
19025;DHT22;9645;51.448;6.260;2022-07-15T05:13:53;13.80;99.90
19025;DHT22;9645;51.448;6.260;2022-07-15T05:16:21;13.90;99.90
19025;DHT22;9645;51.448;6.260;2022-07-15T05:18:48;14.00;99.90
19025;DHT22;9645;51.448;6.260;2022-07-15T05:21:16;14.10;99.90
19025;DHT22;9645;51.448;6.260;2022-07-15T05:23:43;14.20;99.90
19025;DHT22;9645;51.448;6.260;2022-07-15T05:26:10;14.20;99.90
19025;DHT22;9645;51.448;6.260;2022-07-15T05:28:38;14.30;99.90
19025;DHT22;9645;51.448;6.260;2022-07-15T05:31:06;14.30;99.90
19025;DHT22;9645;51.448;6.260;2022-07-15T05:33:33;14.30;99.90
19025;DHT22;9645;51.448;6.260;2022-07-15T05:36:00;14.30;99.90
19025;DHT22;9645;51.448;6.260;2022-07-15T05:38:29;14.30;99.90
19025;DHT22;9645;51.448;6.260;2022-07-15T05:40:56;14.40;99.90
19025;DHT22;9645;51.448;6.260;2022-07-15T05:43:23;14.50;99.90
19025;DHT22;9645;51.448;6.260;2022-07-15T05:45:50;14.80;99.90
19025;DHT22;9645;51.448;6.260;2022-07-15T05:48:17;15.00;99.90
19025;DHT22;9645;51.448;6.260;2022-07-15T05:50:44;15.10;99.90
19025;DHT22;9645;51.448;6.260;2022-07-15T05:53:11;15.10;99.90
19025;DHT22;9645;51.448;6.260;2022-07-15T05:55:40;14.60;99.90
19025;DHT22;9645;51.448;6.260;2022-07-15T05:58:08;15.10;99.90
19025;DHT22;9645;51.448;6.260;2022-07-15T06:00:36;15.20;99.90
19025;DHT22;9645;51.448;6.260;2022-07-15T06:03:03;15.40;99.90
19025;DHT22;9645;51.448;6.260;2022-07-15T06:05:31;15.70;99.90
19025;DHT22;9645;51.448;6.260;2022-07-15T06:07:58;15.90;99.90
19025;DHT22;9645;51.448;6.260;2022-07-15T06:10:25;16.20;99.90
19025;DHT22;9645;51.448;6.260;2022-07-15T06:12:53;16.50;99.90
19025;DHT22;9645;51.448;6.260;2022-07-15T06:15:21;16.70;99.90
19025;DHT22;9645;51.448;6.260;2022-07-15T06:17:49;16.80;99.90
19025;DHT22;9645;51.448;6.260;2022-07-15T06:20:17;16.90;99.90
19025;DHT22;9645;51.448;6.260;2022-07-15T06:22:44;17.00;99.90
19025;DHT22;9645;51.448;6.260;2022-07-15T06:25:12;17.10;99.90
19025;DHT22;9645;51.448;6.260;2022-07-15T06:27:39;17.20;99.90
19025;DHT22;9645;51.448;6.260;2022-07-15T06:30:09;17.20;99.90
19025;DHT22;9645;51.448;6.260;2022-07-15T06:32:36;17.20;99.90
19025;DHT22;9645;51.448;6.260;2022-07-15T06:35:04;17.30;99.90
19025;DHT22;9645;51.448;6.260;2022-07-15T06:37:31;17.40;99.90
19025;DHT22;9645;51.448;6.260;2022-07-15T06:39:58;17.70;99.90
19025;DHT22;9645;51.448;6.260;2022-07-15T06:42:25;17.70;99.90
19025;DHT22;9645;51.448;6.260;2022-07-15T06:44:52;17.80;99.90
19025;DHT22;9645;51.448;6.260;2022-07-15T06:47:21;17.90;99.90
19025;DHT22;9645;51.448;6.260;2022-07-15T06:49:48;18.10;99.90
19025;DHT22;9645;51.448;6.260;2022-07-15T06:52:16;18.00;99.90
19025;DHT22;9645;51.448;6.260;2022-07-15T06:54:43;18.10;99.90
19025;DHT22;9645;51.448;6.260;2022-07-15T06:57:10;18.30;99.90
19025;DHT22;9645;51.448;6.260;2022-07-15T06:59:38;18.20;99.90
19025;DHT22;9645;51.448;6.260;2022-07-15T07:02:05;18.20;99.90
19025;DHT22;9645;51.448;6.260;2022-07-15T07:04:33;18.50;99.90
19025;DHT22;9645;51.448;6.260;2022-07-15T07:07:01;18.70;99.90
19025;DHT22;9645;51.448;6.260;2022-07-15T07:09:28;18.70;99.90
19025;DHT22;9645;51.448;6.260;2022-07-15T07:11:55;18.60;99.90
19025;DHT22;9645;51.448;6.260;2022-07-15T07:14:23;18.80;99.90
19025;DHT22;9645;51.448;6.260;2022-07-15T07:16:50;19.00;99.90
19025;DHT22;9645;51.448;6.260;2022-07-15T07:19:17;19.20;99.90
19025;DHT22;9645;51.448;6.260;2022-07-15T07:21:45;19.20;99.90
19025;DHT22;9645;51.448;6.260;2022-07-15T07:24:12;19.40;99.90
19025;DHT22;9645;51.448;6.260;2022-07-15T07:26:40;19.70;99.90
19025;DHT22;9645;51.448;6.260;2022-07-15T07:29:07;19.80;99.90
19025;DHT22;9645;51.448;6.260;2022-07-15T07:31:35;19.90;99.90
19025;DHT22;9645;51.448;6.260;2022-07-15T07:34:02;20.20;99.90
19025;DHT22;9645;51.448;6.260;2022-07-15T07:36:29;20.20;99.90
19025;DHT22;9645;51.448;6.260;2022-07-15T07:38:57;20.50;99.90
19025;DHT22;9645;51.448;6.260;2022-07-15T07:41:24;20.90;99.90
19025;DHT22;9645;51.448;6.260;2022-07-15T07:43:51;20.80;99.90
19025;DHT22;9645;51.448;6.260;2022-07-15T07:46:18;21.00;99.90
19025;DHT22;9645;51.448;6.260;2022-07-15T07:48:45;20.80;99.90
19025;DHT22;9645;51.448;6.260;2022-07-15T07:51:12;20.50;99.90
19025;DHT22;9645;51.448;6.260;2022-07-15T07:53:39;20.70;99.90
19025;DHT22;9645;51.448;6.260;2022-07-15T07:56:08;21.20;99.90
19025;DHT22;9645;51.448;6.260;2022-07-15T07:58:35;21.60;99.90
19025;DHT22;9645;51.448;6.260;2022-07-15T08:01:04;21.80;99.90
19025;DHT22;9645;51.448;6.260;2022-07-15T08:03:32;22.20;99.90
19025;DHT22;9645;51.448;6.260;2022-07-15T08:05:59;22.30;99.90
19025;DHT22;9645;51.448;6.260;2022-07-15T08:08:26;21.80;99.90
19025;DHT22;9645;51.448;6.260;2022-07-15T08:10:54;21.80;99.90
19025;DHT22;9645;51.448;6.260;2022-07-15T08:13:24;21.50;99.90
19025;DHT22;9645;51.448;6.260;2022-07-15T08:15:52;21.90;99.90
19025;DHT22;9645;51.448;6.260;2022-07-15T08:18:22;21.70;99.90
19025;DHT22;9645;51.448;6.260;2022-07-15T08:20:49;21.40;99.90
19025;DHT22;9645;51.448;6.260;2022-07-15T08:23:17;21.60;99.90
19025;DHT22;9645;51.448;6.260;2022-07-15T08:25:48;22.20;99.90
19025;DHT22;9645;51.448;6.260;2022-07-15T08:28:16;22.60;99.90
19025;DHT22;9645;51.448;6.260;2022-07-15T08:30:45;23.00;99.90
19025;DHT22;9645;51.448;6.260;2022-07-15T08:33:13;23.00;99.90
19025;DHT22;9645;51.448;6.260;2022-07-15T08:35:40;22.80;99.90
19025;DHT22;9645;51.448;6.260;2022-07-15T08:38:08;22.30;99.90
19025;DHT22;9645;51.448;6.260;2022-07-15T08:40:36;21.90;99.90
19025;DHT22;9645;51.448;6.260;2022-07-15T08:43:05;21.90;99.90
19025;DHT22;9645;51.448;6.260;2022-07-15T08:45:34;21.80;99.90
19025;DHT22;9645;51.448;6.260;2022-07-15T08:48:04;21.70;99.90
19025;DHT22;9645;51.448;6.260;2022-07-15T08:50:33;21.60;99.90
19025;DHT22;9645;51.448;6.260;2022-07-15T08:53:00;21.40;99.90
19025;DHT22;9645;51.448;6.260;2022-07-15T08:55:27;21.40;99.90
19025;DHT22;9645;51.448;6.260;2022-07-15T08:57:56;21.30;99.90
19025;DHT22;9645;51.448;6.260;2022-07-15T09:00:24;21.20;99.90
19025;DHT22;9645;51.448;6.260;2022-07-15T09:02:55;21.20;99.90
19025;DHT22;9645;51.448;6.260;2022-07-15T09:05:26;21.20;99.90
19025;DHT22;9645;51.448;6.260;2022-07-15T09:07:57;21.30;99.90
19025;DHT22;9645;51.448;6.260;2022-07-15T09:10:40;21.70;99.90
19025;DHT22;9645;51.448;6.260;2022-07-15T09:13:08;22.10;99.90
19025;DHT22;9645;51.448;6.260;2022-07-15T09:15:37;22.70;99.90
19025;DHT22;9645;51.448;6.260;2022-07-15T09:18:06;22.40;99.90
19025;DHT22;9645;51.448;6.260;2022-07-15T09:20:34;22.70;99.90
19025;DHT22;9645;51.448;6.260;2022-07-15T09:23:02;23.50;99.90
19025;DHT22;9645;51.448;6.260;2022-07-15T09:25:30;24.10;99.00
19025;DHT22;9645;51.448;6.260;2022-07-15T09:27:59;24.30;99.10
19025;DHT22;9645;51.448;6.260;2022-07-15T09:30:28;24.90;98.70
19025;DHT22;9645;51.448;6.260;2022-07-15T09:33:15;25.20;96.10
19025;DHT22;9645;51.448;6.260;2022-07-15T09:36:09;24.80;96.50
19025;DHT22;9645;51.448;6.260;2022-07-15T09:38:40;25.40;97.10
19025;DHT22;9645;51.448;6.260;2022-07-15T09:41:12;26.10;94.90
19025;DHT22;9645;51.448;6.260;2022-07-15T09:43:47;26.20;93.20
19025;DHT22;9645;51.448;6.260;2022-07-15T09:46:15;26.10;92.50
19025;DHT22;9645;51.448;6.260;2022-07-15T09:48:43;25.70;93.10
19025;DHT22;9645;51.448;6.260;2022-07-15T09:51:12;25.50;93.60
19025;DHT22;9645;51.448;6.260;2022-07-15T09:53:39;24.90;93.30
19025;DHT22;9645;51.448;6.260;2022-07-15T09:56:09;25.40;96.20
19025;DHT22;9645;51.448;6.260;2022-07-15T09:58:38;25.90;95.50
19025;DHT22;9645;51.448;6.260;2022-07-15T10:01:07;26.10;92.40
19025;DHT22;9645;51.448;6.260;2022-07-15T10:03:34;25.60;91.20
19025;DHT22;9645;51.448;6.260;2022-07-15T10:06:01;24.80;92.20
19025;DHT22;9645;51.448;6.260;2022-07-15T10:08:31;24.40;93.50
19025;DHT22;9645;51.448;6.260;2022-07-15T10:10:58;24.20;95.40
19025;DHT22;9645;51.448;6.260;2022-07-15T10:19:35;25.00;94.20
19025;DHT22;9645;51.448;6.260;2022-07-15T10:22:09;24.90;91.60
19025;DHT22;9645;51.448;6.260;2022-07-15T10:24:55;25.00;92.90
19025;DHT22;9645;51.448;6.260;2022-07-15T10:27:43;25.30;92.50
19025;DHT22;9645;51.448;6.260;2022-07-15T10:30:11;25.90;93.00
19025;DHT22;9645;51.448;6.260;2022-07-15T10:33:10;26.10;92.70
19025;DHT22;9645;51.448;6.260;2022-07-15T10:35:42;25.50;92.00
19025;DHT22;9645;51.448;6.260;2022-07-15T10:38:36;25.70;94.50
19025;DHT22;9645;51.448;6.260;2022-07-15T10:41:08;26.30;91.50
19025;DHT22;9645;51.448;6.260;2022-07-15T10:43:45;26.20;91.50
19025;DHT22;9645;51.448;6.260;2022-07-15T10:46:24;26.60;90.70
19025;DHT22;9645;51.448;6.260;2022-07-15T10:48:53;26.60;88.70
19025;DHT22;9645;51.448;6.260;2022-07-15T10:51:45;26.00;90.10
19025;DHT22;9645;51.448;6.260;2022-07-15T10:57:15;27.20;89.40
19025;DHT22;9645;51.448;6.260;2022-07-15T10:59:54;27.30;83.70
19025;DHT22;9645;51.448;6.260;2022-07-15T11:02:23;26.80;85.20
19025;DHT22;9645;51.448;6.260;2022-07-15T11:05:16;26.20;90.00
19025;DHT22;9645;51.448;6.260;2022-07-15T11:07:40;26.10;86.50
19025;DHT22;9645;51.448;6.260;2022-07-15T11:10:21;25.60;85.60
19025;DHT22;9645;51.448;6.260;2022-07-15T11:13:02;25.20;90.00
19025;DHT22;9645;51.448;6.260;2022-07-15T11:15:29;24.80;88.50
19025;DHT22;9645;51.448;6.260;2022-07-15T11:17:58;25.30;92.40
19025;DHT22;9645;51.448;6.260;2022-07-15T11:20:28;25.70;88.20
19025;DHT22;9645;51.448;6.260;2022-07-15T11:22:58;26.40;85.80
19025;DHT22;9645;51.448;6.260;2022-07-15T11:25:27;26.40;83.80
19025;DHT22;9645;51.448;6.260;2022-07-15T11:28:02;26.20;85.90
19025;DHT22;9645;51.448;6.260;2022-07-15T11:30:32;26.00;87.70
19025;DHT22;9645;51.448;6.260;2022-07-15T11:33:03;26.20;89.30
19025;DHT22;9645;51.448;6.260;2022-07-15T11:35:30;26.90;87.40
19025;DHT22;9645;51.448;6.260;2022-07-15T11:37:59;27.60;86.00
19025;DHT22;9645;51.448;6.260;2022-07-15T11:40:28;27.30;82.80
19025;DHT22;9645;51.448;6.260;2022-07-15T11:43:16;26.60;78.50
19025;DHT22;9645;51.448;6.260;2022-07-15T11:46:00;25.90;82.10
19025;DHT22;9645;51.448;6.260;2022-07-15T11:48:27;25.50;85.60
19025;DHT22;9645;51.448;6.260;2022-07-15T11:50:56;25.40;86.30
19025;DHT22;9645;51.448;6.260;2022-07-15T11:53:24;25.40;86.60
19025;DHT22;9645;51.448;6.260;2022-07-15T11:55:53;25.40;85.60
19025;DHT22;9645;51.448;6.260;2022-07-15T11:58:30;26.00;85.40
19025;DHT22;9645;51.448;6.260;2022-07-15T12:00:58;26.30;80.60
19025;DHT22;9645;51.448;6.260;2022-07-15T12:03:34;25.20;80.00
19025;DHT22;9645;51.448;6.260;2022-07-15T12:06:03;24.90;82.00
19025;DHT22;9645;51.448;6.260;2022-07-15T12:08:39;24.90;84.30
19025;DHT22;9645;51.448;6.260;2022-07-15T12:11:13;25.20;87.30
19025;DHT22;9645;51.448;6.260;2022-07-15T12:13:44;25.30;82.80
19025;DHT22;9645;51.448;6.260;2022-07-15T12:16:12;25.70;82.80
19025;DHT22;9645;51.448;6.260;2022-07-15T12:18:41;25.70;83.40
19025;DHT22;9645;51.448;6.260;2022-07-15T12:21:08;25.50;83.00
19025;DHT22;9645;51.448;6.260;2022-07-15T12:23:35;25.50;82.50
19025;DHT22;9645;51.448;6.260;2022-07-15T12:26:04;25.60;84.00
19025;DHT22;9645;51.448;6.260;2022-07-15T12:28:31;26.20;81.90
19025;DHT22;9645;51.448;6.260;2022-07-15T12:31:00;26.50;79.20
19025;DHT22;9645;51.448;6.260;2022-07-15T12:33:32;27.30;84.40
19025;DHT22;9645;51.448;6.260;2022-07-15T12:36:14;27.30;81.30
19025;DHT22;9645;51.448;6.260;2022-07-15T12:38:41;27.90;79.30
19025;DHT22;9645;51.448;6.260;2022-07-15T12:41:21;27.70;75.40
19025;DHT22;9645;51.448;6.260;2022-07-15T12:43:51;27.70;77.10
19025;DHT22;9645;51.448;6.260;2022-07-15T12:46:20;27.80;77.30
19025;DHT22;9645;51.448;6.260;2022-07-15T12:48:48;28.30;79.30
19025;DHT22;9645;51.448;6.260;2022-07-15T12:51:16;27.90;72.30
19025;DHT22;9645;51.448;6.260;2022-07-15T12:53:43;28.10;72.30
19025;DHT22;9645;51.448;6.260;2022-07-15T12:56:11;28.20;73.10
19025;DHT22;9645;51.448;6.260;2022-07-15T12:58:39;27.80;72.40
19025;DHT22;9645;51.448;6.260;2022-07-15T13:01:08;28.30;74.00
19025;DHT22;9645;51.448;6.260;2022-07-15T13:03:37;28.70;70.10
19025;DHT22;9645;51.448;6.260;2022-07-15T13:06:05;28.40;71.70
19025;DHT22;9645;51.448;6.260;2022-07-15T13:08:33;28.10;71.60
19025;DHT22;9645;51.448;6.260;2022-07-15T13:11:03;28.00;73.40
19025;DHT22;9645;51.448;6.260;2022-07-15T13:13:31;28.30;75.80
19025;DHT22;9645;51.448;6.260;2022-07-15T13:16:00;28.60;75.40
19025;DHT22;9645;51.448;6.260;2022-07-15T13:18:30;28.30;68.80
19025;DHT22;9645;51.448;6.260;2022-07-15T13:21:03;27.40;69.50
19025;DHT22;9645;51.448;6.260;2022-07-15T13:23:31;26.80;75.00
19025;DHT22;9645;51.448;6.260;2022-07-15T13:25:58;27.20;74.60
19025;DHT22;9645;51.448;6.260;2022-07-15T13:28:25;27.40;71.90
19025;DHT22;9645;51.448;6.260;2022-07-15T13:30:53;27.50;71.80
19025;DHT22;9645;51.448;6.260;2022-07-15T13:33:20;27.80;76.70
19025;DHT22;9645;51.448;6.260;2022-07-15T13:35:48;28.00;73.50
19025;DHT22;9645;51.448;6.260;2022-07-15T13:38:16;27.90;72.40
19025;DHT22;9645;51.448;6.260;2022-07-15T13:40:43;27.30;71.50
19025;DHT22;9645;51.448;6.260;2022-07-15T13:43:10;27.10;74.50
19025;DHT22;9645;51.448;6.260;2022-07-15T13:45:37;27.20;70.60
19025;DHT22;9645;51.448;6.260;2022-07-15T13:48:05;26.80;71.80
19025;DHT22;9645;51.448;6.260;2022-07-15T13:50:32;27.20;75.10
19025;DHT22;9645;51.448;6.260;2022-07-15T13:53:18;27.70;75.10
19025;DHT22;9645;51.448;6.260;2022-07-15T13:55:45;27.40;72.30
19025;DHT22;9645;51.448;6.260;2022-07-15T13:58:12;27.40;74.00
19025;DHT22;9645;51.448;6.260;2022-07-15T14:00:42;27.30;71.90
19025;DHT22;9645;51.448;6.260;2022-07-15T14:03:10;26.90;70.40
19025;DHT22;9645;51.448;6.260;2022-07-15T14:05:37;26.60;75.00
19025;DHT22;9645;51.448;6.260;2022-07-15T14:08:05;26.60;73.80
19025;DHT22;9645;51.448;6.260;2022-07-15T14:10:33;26.40;74.00
19025;DHT22;9645;51.448;6.260;2022-07-15T14:13:01;25.90;72.60
19025;DHT22;9645;51.448;6.260;2022-07-15T14:15:28;25.50;73.30
19025;DHT22;9645;51.448;6.260;2022-07-15T14:17:55;25.50;75.10
19025;DHT22;9645;51.448;6.260;2022-07-15T14:20:22;25.30;75.30
19025;DHT22;9645;51.448;6.260;2022-07-15T14:22:49;25.50;74.60
19025;DHT22;9645;51.448;6.260;2022-07-15T14:25:16;25.70;73.70
19025;DHT22;9645;51.448;6.260;2022-07-15T14:27:45;25.50;73.90
19025;DHT22;9645;51.448;6.260;2022-07-15T14:30:12;25.30;74.10
19025;DHT22;9645;51.448;6.260;2022-07-15T14:32:41;25.10;75.20
19025;DHT22;9645;51.448;6.260;2022-07-15T14:35:08;24.80;76.80
19025;DHT22;9645;51.448;6.260;2022-07-15T14:37:36;24.50;76.10
19025;DHT22;9645;51.448;6.260;2022-07-15T14:40:04;24.40;76.80
19025;DHT22;9645;51.448;6.260;2022-07-15T14:42:32;24.30;77.50
19025;DHT22;9645;51.448;6.260;2022-07-15T14:45:00;24.20;77.30
19025;DHT22;9645;51.448;6.260;2022-07-15T14:47:27;24.20;78.20
19025;DHT22;9645;51.448;6.260;2022-07-15T14:49:54;24.60;79.50
19025;DHT22;9645;51.448;6.260;2022-07-15T14:52:21;24.60;76.70
19025;DHT22;9645;51.448;6.260;2022-07-15T14:54:48;24.60;77.10
19025;DHT22;9645;51.448;6.260;2022-07-15T14:57:15;24.60;78.50
19025;DHT22;9645;51.448;6.260;2022-07-15T14:59:42;24.80;77.80
19025;DHT22;9645;51.448;6.260;2022-07-15T15:02:11;24.80;78.50
19025;DHT22;9645;51.448;6.260;2022-07-15T15:04:38;24.90;78.80
19025;DHT22;9645;51.448;6.260;2022-07-15T15:07:05;25.10;78.50
19025;DHT22;9645;51.448;6.260;2022-07-15T15:09:32;25.60;78.40
19025;DHT22;9645;51.448;6.260;2022-07-15T15:11:59;25.70;76.10
19025;DHT22;9645;51.448;6.260;2022-07-15T15:14:26;25.90;77.10
19025;DHT22;9645;51.448;6.260;2022-07-15T15:16:53;26.00;77.20
19025;DHT22;9645;51.448;6.260;2022-07-15T15:19:21;26.30;74.60
19025;DHT22;9645;51.448;6.260;2022-07-15T15:21:48;26.60;76.30
19025;DHT22;9645;51.448;6.260;2022-07-15T15:24:15;26.80;74.80
19025;DHT22;9645;51.448;6.260;2022-07-15T15:26:42;26.60;75.10
19025;DHT22;9645;51.448;6.260;2022-07-15T15:29:09;26.40;77.90
19025;DHT22;9645;51.448;6.260;2022-07-15T15:31:36;26.60;74.70
19025;DHT22;9645;51.448;6.260;2022-07-15T15:34:03;26.80;75.90
19025;DHT22;9645;51.448;6.260;2022-07-15T15:36:32;26.80;72.50
19025;DHT22;9645;51.448;6.260;2022-07-15T15:38:59;26.60;71.90
19025;DHT22;9645;51.448;6.260;2022-07-15T15:41:26;26.60;73.30
19025;DHT22;9645;51.448;6.260;2022-07-15T15:43:53;26.30;73.20
19025;DHT22;9645;51.448;6.260;2022-07-15T15:46:20;26.70;75.00
19025;DHT22;9645;51.448;6.260;2022-07-15T15:48:47;26.90;71.70
19025;DHT22;9645;51.448;6.260;2022-07-15T15:51:14;27.10;75.10
19025;DHT22;9645;51.448;6.260;2022-07-15T15:53:42;26.80;73.20
19025;DHT22;9645;51.448;6.260;2022-07-15T15:56:09;25.90;77.30
19025;DHT22;9645;51.448;6.260;2022-07-15T15:58:36;25.80;77.00
19025;DHT22;9645;51.448;6.260;2022-07-15T16:01:03;26.00;76.60
19025;DHT22;9645;51.448;6.260;2022-07-15T16:03:30;26.10;76.80